MSC Fabiola — A8VL5 — position and weather

sailwx.info

Track history (hours):
 
Tides and Currents Weather Stations Pressure Air Temp Water Temp Dewpoint Dewpoint Depression Visibility Wind Speed Wind Dir Waves Ship Positions

MSC Fabiola

Last reported at 2014-Aug-18 22:15 UTC. Time now 2014-Aug-28 07:26 UTC.
Position N 31°26' E 032°24'.
Warning: this ship's position is 9 days out of date.

Length 366 m; draft 14.7 m.

Type: Ship. MMSI: 636092019.

Date/timePositionNaut miles runAvg speedWind from/ knotsBaromVisibWave heightAir tempDewpointWater temp
2014-Aug-18 22:15N 31°26' E 032°24'4 5.7
2014-Aug-18 21:32N 31°28' E 032°20'1 0.2
2014-Aug-18 18:19N 31°28' E 032°20'1 0.3
2014-Aug-18 15:18N 31°27' E 032°20'16516.9
2014-Aug-18 05:33N 32°41' E 029°27'5918.8
2014-Aug-18 02:27N 33°05' E 028°23'31618.7
2014-Aug-17 09:33N 35°11' E 022°33'37917.9
2014-Aug-16 12:23N 38°20' E 015°43'88 2.3
2014-Aug-14 21:33N 38°21' E 013°51'1818.6
2014-Aug-14 20:34N 38°21' E 013°27'1918.5
2014-Aug-14 19:33N 38°20' E 013°04'1918.4
2014-Aug-14 18:32N 38°18' E 012°40'13818.8
2014-Aug-14 11:12N 37°59' E 009°46'1318.7
2014-Aug-14 10:31N 37°58' E 009°30'1818.6
2014-Aug-14 09:33N 37°55' E 009°07'2219.0
2014-Aug-14 08:23N 37°52' E 008°40'30317.9
2014-Aug-13 15:25N 37°04' E 002°23'1517.8
2014-Aug-13 14:33N 37°01' E 002°04'1818.2
2014-Aug-13 13:33N 36°57' E 001°41'1818.2
2014-Aug-13 12:33N 36°55' E 001°19'2818.7
2014-Aug-13 11:04N 36°50' E 000°44'2818.1
2014-Aug-13 09:32N 36°46' E 000°10'1818.1
2014-Aug-13 08:33N 36°43' W 000°11'2218.5
2014-Aug-13 07:21N 36°38' W 000°39'30619.2
2014-Aug-12 15:25N 36°01' W 006°56'2119.3
2014-Aug-12 14:20N 36°07' W 007°21'13515.4
2014-Aug-12 05:33N 37°19' W 009°43'84217.1
2014-Aug-10 04:22N 50°10' W 001°57'1619.4
2014-Aug-10 03:34N 50°14' W 001°34'6521.2
2014-Aug-10 00:28N 50°30' E 000°06'1820.0
2014-Aug-09 23:33N 50°37' E 000°33'1818.5
2014-Aug-09 22:33N 50°47' E 000°57'1717.3
2014-Aug-09 21:33N 50°56' E 001°20'1616.5
2014-Aug-09 20:33N 51°08' E 001°39'1817.7
2014-Aug-09 19:33N 51°23' E 001°54'2020.4
2014-Aug-09 18:33N 51°39' E 002°14'2119.6
2014-Aug-09 17:29N 51°55' E 002°36'3717.6
2014-Aug-09 15:21N 52°04' E 003°35'1215.1
2014-Aug-09 14:33N 52°03' E 003°54'8 8.0
2014-Aug-09 13:33N 51°58' E 004°05'1 0.5
2014-Aug-09 12:25N 51°58' E 004°04'0 0.0
2014-Aug-09 11:31N 51°58' E 004°04'0 0.0
2014-Aug-09 10:31N 51°58' E 004°04'0 0.0
2014-Aug-09 09:31N 51°58' E 004°04'0 0.0
2014-Aug-09 08:31N 51°58' E 004°04'0 0.0
2014-Aug-09 07:31N 51°58' E 004°04'0 0.0
2014-Aug-09 06:31N 51°58' E 004°04'0 0.0
2014-Aug-09 05:31N 51°58' E 004°04'0 0.0
2014-Aug-09 04:28N 51°58' E 004°04'0 0.0
2014-Aug-09 03:31N 51°58' E 004°04'0 0.0
2014-Aug-09 02:28N 51°58' E 004°04'0 0.0
2014-Aug-09 01:31N 51°58' E 004°04'0 0.0
2014-Aug-09 00:25N 51°58' E 004°04'0 0.0
2014-Aug-08 23:31N 51°58' E 004°04'0 0.0
2014-Aug-08 22:28N 51°58' E 004°04'  
Track history (hours):
 
Tides and Currents Weather Stations Pressure Air Temp Water Temp Dewpoint Dewpoint Depression Visibility Wind Speed Wind Dir Waves Ship Positions

MSC Fabiola

Last reported at 2014-Aug-18 22:15 UTC. Time now 2014-Aug-28 07:26 UTC.
Position N 31°26' E 032°24'.
Warning: this ship's position is 9 days out of date.

Length 366 m; draft 14.7 m.

Type: Ship. MMSI: 636092019.

Date/timePositionNaut miles runAvg speedWind from/ knotsBaromVisibWave heightAir tempDewpointWater temp
2014-Aug-18 22:15N 31°26' E 032°24'4 5.7
2014-Aug-18 21:32N 31°28' E 032°20'1 0.2
2014-Aug-18 18:19N 31°28' E 032°20'1 0.3
2014-Aug-18 15:18N 31°27' E 032°20'16516.9
2014-Aug-18 05:33N 32°41' E 029°27'5918.8
2014-Aug-18 02:27N 33°05' E 028°23'31618.7
2014-Aug-17 09:33N 35°11' E 022°33'37917.9
2014-Aug-16 12:23N 38°20' E 015°43'88 2.3
2014-Aug-14 21:33N 38°21' E 013°51'1818.6
2014-Aug-14 20:34N 38°21' E 013°27'1918.5
2014-Aug-14 19:33N 38°20' E 013°04'1918.4
2014-Aug-14 18:32N 38°18' E 012°40'13818.8
2014-Aug-14 11:12N 37°59' E 009°46'1318.7
2014-Aug-14 10:31N 37°58' E 009°30'1818.6
2014-Aug-14 09:33N 37°55' E 009°07'2219.0
2014-Aug-14 08:23N 37°52' E 008°40'30317.9
2014-Aug-13 15:25N 37°04' E 002°23'1517.8
2014-Aug-13 14:33N 37°01' E 002°04'1818.2
2014-Aug-13 13:33N 36°57' E 001°41'1818.2
2014-Aug-13 12:33N 36°55' E 001°19'2818.7
2014-Aug-13 11:04N 36°50' E 000°44'2818.1
2014-Aug-13 09:32N 36°46' E 000°10'1818.1
2014-Aug-13 08:33N 36°43' W 000°11'2218.5
2014-Aug-13 07:21N 36°38' W 000°39'30619.2
2014-Aug-12 15:25N 36°01' W 006°56'2119.3
2014-Aug-12 14:20N 36°07' W 007°21'13515.4
2014-Aug-12 05:33N 37°19' W 009°43'84217.1
2014-Aug-10 04:22N 50°10' W 001°57'1619.4
2014-Aug-10 03:34N 50°14' W 001°34'6521.2
2014-Aug-10 00:28N 50°30' E 000°06'1820.0
2014-Aug-09 23:33N 50°37' E 000°33'1818.5
2014-Aug-09 22:33N 50°47' E 000°57'1717.3
2014-Aug-09 21:33N 50°56' E 001°20'1616.5
2014-Aug-09 20:33N 51°08' E 001°39'1817.7
2014-Aug-09 19:33N 51°23' E 001°54'2020.4
2014-Aug-09 18:33N 51°39' E 002°14'2119.6
2014-Aug-09 17:29N 51°55' E 002°36'3717.6
2014-Aug-09 15:21N 52°04' E 003°35'1215.1
2014-Aug-09 14:33N 52°03' E 003°54'8 8.0
2014-Aug-09 13:33N 51°58' E 004°05'1 0.5
2014-Aug-09 12:25N 51°58' E 004°04'0 0.0
2014-Aug-09 11:31N 51°58' E 004°04'0 0.0
2014-Aug-09 10:31N 51°58' E 004°04'0 0.0
2014-Aug-09 09:31N 51°58' E 004°04'0 0.0
2014-Aug-09 08:31N 51°58' E 004°04'0 0.0
2014-Aug-09 07:31N 51°58' E 004°04'0 0.0
2014-Aug-09 06:31N 51°58' E 004°04'0 0.0
2014-Aug-09 05:31N 51°58' E 004°04'0 0.0
2014-Aug-09 04:28N 51°58' E 004°04'0 0.0
2014-Aug-09 03:31N 51°58' E 004°04'0 0.0
2014-Aug-09 02:28N 51°58' E 004°04'0 0.0
2014-Aug-09 01:31N 51°58' E 004°04'0 0.0
2014-Aug-09 00:25N 51°58' E 004°04'0 0.0
2014-Aug-08 23:31N 51°58' E 004°04'0 0.0
2014-Aug-08 22:28N 51°58' E 004°04'  

Dump ship's entire track history